Time;durP1;ratioP1;P1;durP2;ratioP2;P2;SDS_P1;SDS_P2;PMS_P1;PMS_P2;Temp;Humidity;BMP_temperature;BMP_pressure;BME280_temperature;BME280_humidity;BME280_pressure;Samples;Min_cycle;Max_cycle;Signal;HPM_P1;HPM_P2
2022/04/13 00:00:26;;;;;;;15.35;12.00;;;13.80;98.40;;;;;;5091556;28;20437;-76
2022/04/13 00:02:51;;;;;;;15.00;12.00;;;13.80;98.40;;;;;;5091545;28;20402;-77
2022/04/13 00:05:17;;;;;;;14.50;12.60;;;13.70;98.40;;;;;;5090547;28;20398;-76
2022/04/13 00:07:42;;;;;;;14.27;11.80;;;13.80;99.10;;;;;;5091659;28;20745;-77
2022/04/13 00:10:08;;;;;;;13.88;11.93;;;13.80;99.30;;;;;;5091126;28;20433;-76
2022/04/13 00:12:34;;;;;;;13.17;11.30;;;13.70;99.20;;;;;;5090886;28;20558;-76
2022/04/13 00:15:02;;;;;;;15.02;12.80;;;13.70;99.30;;;;;;5090946;28;20810;-77
2022/04/13 00:17:28;;;;;;;14.98;12.40;;;13.70;99.80;;;;;;5090927;28;20476;-76
2022/04/13 00:19:53;;;;;;;14.60;12.35;;;13.60;99.90;;;;;;5090982;28;20836;-77
2022/04/13 00:22:19;;;;;;;14.47;12.30;;;13.50;99.90;;;;;;5090840;28;20749;-76
2022/04/13 00:24:45;;;;;;;15.95;13.25;;;13.50;99.90;;;;;;5091214;28;20417;-76
2022/04/13 00:27:10;;;;;;;14.50;12.97;;;13.50;99.90;;;;;;5090249;28;20440;-77
2022/04/13 00:29:36;;;;;;;13.82;12.43;;;13.50;99.90;;;;;;5072810;28;20461;-76
2022/04/13 00:32:03;;;;;;;14.40;12.90;;;13.40;99.90;;;;;;5055858;28;20425;-77
2022/04/13 00:34:29;;;;;;;14.20;12.48;;;13.40;99.90;;;;;;5091161;28;20435;-76
2022/04/13 00:36:57;;;;;;;16.67;13.37;;;13.30;99.90;;;;;;5090725;28;20402;-76
2022/04/13 00:39:23;;;;;;;15.55;13.13;;;13.20;99.90;;;;;;5090141;28;20444;-76
2022/04/13 00:41:57;;;;;;;15.63;13.27;;;13.20;99.90;;;;;;5096623;28;20554;-76
2022/04/13 00:44:22;;;;;;;15.95;12.98;;;13.20;99.90;;;;;;5110281;28;20479;-77
2022/04/13 00:46:48;;;;;;;14.30;12.80;;;13.10;99.90;;;;;;5110948;28;21025;-76
2022/04/13 00:49:14;;;;;;;14.17;12.67;;;13.10;99.90;;;;;;5110852;28;20415;-76
2022/04/13 00:51:40;;;;;;;13.97;12.47;;;13.00;99.90;;;;;;5110258;28;20460;-76
2022/04/13 00:54:06;;;;;;;15.55;12.55;;;13.00;99.90;;;;;;5092935;28;20487;-76
2022/04/13 00:56:35;;;;;;;14.05;12.45;;;12.90;99.90;;;;;;5110800;28;20978;-76
2022/04/13 00:59:05;;;;;;;15.38;13.25;;;12.90;99.90;;;;;;5091984;28;20405;-76
2022/04/13 01:01:30;;;;;;;15.35;13.00;;;12.80;99.90;;;;;;5110718;28;20404;-76
2022/04/13 01:03:57;;;;;;;14.60;13.00;;;12.80;99.90;;;;;;5110643;28;20412;-77
2022/04/13 01:06:24;;;;;;;15.07;13.50;;;12.80;99.90;;;;;;5110359;28;20404;-76
2022/04/13 01:08:50;;;;;;;15.67;13.20;;;12.70;99.90;;;;;;5092464;28;20401;-77
2022/04/13 01:11:17;;;;;;;15.43;13.73;;;12.70;99.90;;;;;;5091312;28;21255;-77
2022/04/13 01:13:43;;;;;;;15.32;13.15;;;12.70;99.90;;;;;;5074950;28;20428;-77
2022/04/13 01:16:10;;;;;;;15.75;14.15;;;12.60;99.90;;;;;;5110256;28;20978;-77
2022/04/13 01:18:35;;;;;;;15.23;13.50;;;12.60;99.90;;;;;;5110412;28;20449;-76
2022/04/13 01:21:01;;;;;;;16.33;14.57;;;12.60;99.90;;;;;;5110068;28;20443;-77
2022/04/13 01:23:27;;;;;;;15.88;13.85;;;12.50;99.90;;;;;;5109943;28;20465;-77
2022/04/13 01:25:55;;;;;;;15.75;14.05;;;12.50;99.90;;;;;;5091947;28;20592;-77
2022/04/13 01:28:22;;;;;;;15.85;14.15;;;12.40;99.90;;;;;;5110047;28;21119;-77
2022/04/13 01:30:47;;;;;;;17.58;14.45;;;12.40;99.90;;;;;;5109828;28;20893;-77
2022/04/13 01:33:13;;;;;;;18.00;14.57;;;12.40;99.90;;;;;;5091719;28;20424;-76
2022/04/13 01:35:39;;;;;;;15.63;14.00;;;12.30;99.90;;;;;;5109872;28;20404;-77
2022/04/13 01:38:05;;;;;;;17.00;15.20;;;12.30;99.90;;;;;;5091707;28;20408;-77
2022/04/13 01:40:31;;;;;;;16.92;14.57;;;12.30;99.90;;;;;;5109829;28;20401;-77
2022/04/13 01:42:56;;;;;;;16.88;14.35;;;12.30;99.90;;;;;;5094029;28;20405;-77
2022/04/13 01:45:22;;;;;;;18.33;15.07;;;12.20;99.90;;;;;;5071118;28;20417;-77
2022/04/13 01:47:51;;;;;;;16.83;14.93;;;12.20;99.90;;;;;;5071106;28;20489;-76
2022/04/13 01:50:19;;;;;;;16.75;14.65;;;12.20;99.90;;;;;;5054554;28;20402;-76
2022/04/13 01:52:46;;;;;;;16.48;14.65;;;12.20;99.90;;;;;;5089150;28;20430;-76
2022/04/13 01:55:12;;;;;;;18.70;14.57;;;12.10;99.90;;;;;;5070905;28;20492;-76
2022/04/13 01:57:40;;;;;;;17.07;15.27;;;12.10;99.90;;;;;;5087984;28;20501;-76
2022/04/13 02:00:08;;;;;;;16.77;15.02;;;12.10;99.90;;;;;;5088118;28;20398;-76
2022/04/13 02:02:34;;;;;;;18.17;15.05;;;12.10;99.90;;;;;;5076381;28;20420;-77
2022/04/13 02:05:01;;;;;;;17.20;14.13;;;12.00;99.90;;;;;;5090050;28;20465;-77
2022/04/13 02:07:28;;;;;;;16.83;14.57;;;12.00;99.90;;;;;;5061837;28;20412;-76
2022/04/13 02:09:55;;;;;;;17.02;14.50;;;12.10;99.90;;;;;;5069976;28;20930;-76
2022/04/13 02:12:21;;;;;;;16.00;14.20;;;12.00;99.90;;;;;;5087641;28;20513;-76
2022/04/13 02:14:46;;;;;;;16.77;14.70;;;12.00;99.90;;;;;;5071324;28;20492;-76
2022/04/13 02:17:16;;;;;;;16.65;14.90;;;12.00;99.90;;;;;;5089792;28;20831;-77
2022/04/13 02:19:43;;;;;;;15.93;14.13;;;12.00;99.90;;;;;;5090556;28;20837;-77
2022/04/13 02:22:08;;;;;;;16.63;14.38;;;11.90;99.90;;;;;;5107845;28;20770;-77
2022/04/13 02:24:35;;;;;;;16.13;13.20;;;11.90;99.90;;;;;;5090004;28;20409;-77
2022/04/13 02:27:04;;;;;;;17.40;13.80;;;11.90;99.90;;;;;;5108421;28;20408;-77
2022/04/13 02:29:29;;;;;;;16.73;13.80;;;11.90;99.90;;;;;;5109133;28;20436;-77
2022/04/13 02:31:55;;;;;;;16.57;14.23;;;11.90;99.90;;;;;;5106037;28;20807;-77
2022/04/13 02:34:21;;;;;;;15.18;13.27;;;11.80;99.90;;;;;;5088290;28;20784;-77
2022/04/13 02:36:46;;;;;;;15.23;13.63;;;11.80;99.90;;;;;;5088655;28;20776;-77
2022/04/13 02:39:12;;;;;;;15.83;13.23;;;11.90;99.90;;;;;;5088326;28;20401;-76
2022/04/13 02:41:38;;;;;;;15.35;13.32;;;11.80;99.90;;;;;;5069671;28;20811;-77
2022/04/13 02:44:04;;;;;;;16.38;13.32;;;11.80;99.90;;;;;;5088150;28;20413;-76
2022/04/13 02:46:30;;;;;;;15.52;13.85;;;11.80;99.90;;;;;;5070581;28;20467;-77
2022/04/13 02:48:55;;;;;;;15.38;13.65;;;11.70;99.90;;;;;;5070215;28;20441;-77
2022/04/13 02:51:21;;;;;;;16.80;12.80;;;11.70;99.90;;;;;;5088219;28;20920;-77
2022/04/13 02:53:47;;;;;;;16.67;13.32;;;11.70;99.90;;;;;;5088291;28;20433;-77
2022/04/13 02:56:12;;;;;;;14.43;12.13;;;11.70;99.90;;;;;;5069578;28;20975;-76
2022/04/13 02:58:38;;;;;;;15.25;12.85;;;11.70;99.90;;;;;;5088066;28;20406;-77
2022/04/13 03:01:03;;;;;;;16.77;12.83;;;11.70;99.90;;;;;;5070279;28;20405;-77
2022/04/13 03:03:30;;;;;;;14.68;13.18;;;11.70;99.90;;;;;;5088161;28;20397;-76
2022/04/13 03:05:56;;;;;;;15.65;13.52;;;11.70;99.90;;;;;;5088822;28;20879;-76
2022/04/13 03:08:21;;;;;;;16.70;13.23;;;11.70;99.90;;;;;;5107871;28;20487;-77
2022/04/13 03:10:47;;;;;;;14.07;12.50;;;11.70;99.90;;;;;;5108753;28;20435;-77
2022/04/13 03:13:13;;;;;;;15.03;12.67;;;11.60;99.90;;;;;;5107688;28;21468;-77
2022/04/13 03:15:39;;;;;;;16.40;12.97;;;11.60;99.90;;;;;;5090233;28;20408;-76
2022/04/13 03:18:05;;;;;;;15.40;13.03;;;11.60;99.90;;;;;;5090061;28;20512;-77
2022/04/13 03:20:34;;;;;;;15.00;12.85;;;11.60;99.90;;;;;;5108428;28;20408;-76
2022/04/13 03:23:01;;;;;;;16.38;12.90;;;11.50;99.90;;;;;;5089954;28;20551;-76
2022/04/13 03:25:27;;;;;;;16.75;12.93;;;11.60;99.90;;;;;;5108241;28;20534;-76
2022/04/13 03:27:53;;;;;;;14.80;12.17;;;11.60;99.90;;;;;;5108102;28;20875;-76
2022/04/13 03:30:19;;;;;;;14.37;12.43;;;11.60;99.90;;;;;;5108076;28;20407;-77
2022/04/13 03:32:45;;;;;;;14.25;12.30;;;11.60;99.90;;;;;;5073088;28;20428;-77
2022/04/13 03:35:11;;;;;;;15.15;12.68;;;11.60;99.90;;;;;;5089587;28;20538;-77
2022/04/13 03:37:38;;;;;;;14.07;12.57;;;11.60;99.90;;;;;;5108262;28;20493;-77
2022/04/13 03:40:05;;;;;;;14.43;12.30;;;11.60;99.90;;;;;;5108221;28;20540;-77
2022/04/13 03:42:35;;;;;;;14.15;12.45;;;11.60;99.90;;;;;;5108130;28;20401;-76
2022/04/13 03:45:09;;;;;;;14.18;12.30;;;11.70;99.90;;;;;;5107470;28;20407;-77
2022/04/13 03:47:35;;;;;;;16.37;12.93;;;11.70;99.90;;;;;;5108022;28;20404;-77
2022/04/13 03:50:00;;;;;;;13.80;12.03;;;11.70;99.90;;;;;;5107861;28;20427;-76
2022/04/13 03:52:26;;;;;;;14.35;11.48;;;11.70;99.90;;;;;;5107962;28;20434;-77
2022/04/13 03:54:52;;;;;;;14.73;12.10;;;11.70;99.90;;;;;;5107760;28;20458;-77
2022/04/13 03:57:18;;;;;;;13.93;12.15;;;11.70;99.90;;;;;;5107681;28;20407;-76
2022/04/13 03:59:43;;;;;;;13.35;11.82;;;11.70;99.90;;;;;;5107949;28;20952;-77
2022/04/13 04:02:09;;;;;;;13.80;11.73;;;11.70;99.90;;;;;;5072732;28;20440;-76
2022/04/13 04:04:34;;;;;;;15.27;12.70;;;11.70;99.90;;;;;;5108110;28;20397;-77
2022/04/13 04:07:00;;;;;;;12.93;11.50;;;11.70;99.90;;;;;;5097507;28;20500;-77
2022/04/13 04:09:26;;;;;;;14.87;12.60;;;11.70;99.90;;;;;;5087280;28;20400;-77
2022/04/13 04:11:51;;;;;;;16.30;12.63;;;11.70;99.90;;;;;;5086924;28;20410;-77
2022/04/13 04:14:17;;;;;;;16.77;12.63;;;11.70;99.90;;;;;;5086938;28;20738;-77
2022/04/13 04:16:43;;;;;;;17.55;12.85;;;11.70;99.90;;;;;;5087688;28;20410;-77
2022/04/13 04:19:09;;;;;;;15.73;12.80;;;11.70;99.90;;;;;;5068926;28;20769;-77
2022/04/13 04:21:35;;;;;;;16.50;13.10;;;11.70;99.90;;;;;;5090835;28;20455;-77
2022/04/13 04:24:01;;;;;;;17.40;13.15;;;11.70;99.90;;;;;;5072891;28;20406;-77
2022/04/13 04:26:26;;;;;;;14.13;12.57;;;11.70;99.90;;;;;;5090857;28;20812;-77
2022/04/13 04:28:52;;;;;;;14.95;12.25;;;11.70;99.90;;;;;;5090718;28;20398;-77
2022/04/13 04:31:49;;;;;;;15.90;12.97;;;11.70;99.90;;;;;;5090679;28;20431;-77
2022/04/13 04:34:04;;;;;;;15.60;12.73;;;11.70;99.90;;;;;;5089753;28;20449;-76
2022/04/13 04:36:29;;;;;;;16.50;13.10;;;11.80;99.90;;;;;;5072828;28;20959;-77
2022/04/13 04:38:55;;;;;;;16.63;13.33;;;11.70;99.90;;;;;;5090247;28;20421;-77
2022/04/13 04:41:20;;;;;;;17.00;12.93;;;11.80;99.90;;;;;;5090368;28;21111;-76
2022/04/13 04:43:46;;;;;;;15.83;13.00;;;11.80;99.90;;;;;;5072211;28;20479;-77
2022/04/13 04:46:12;;;;;;;17.63;13.23;;;11.80;99.90;;;;;;5090202;28;20488;-76
2022/04/13 04:48:42;;;;;;;15.68;13.02;;;11.80;99.90;;;;;;5090407;28;20402;-77
2022/04/13 04:51:10;;;;;;;16.85;13.85;;;11.80;99.90;;;;;;5090219;28;20405;-77
2022/04/13 04:53:36;;;;;;;16.70;12.95;;;11.80;99.90;;;;;;5090383;28;20422;-77
2022/04/13 04:56:01;;;;;;;17.30;13.20;;;11.80;99.90;;;;;;5055310;28;20459;-77
2022/04/13 04:58:27;;;;;;;19.48;14.13;;;11.80;99.90;;;;;;5071732;28;20398;-77
2022/04/13 05:00:53;;;;;;;15.27;13.30;;;11.80;99.90;;;;;;5072343;28;20406;-76
2022/04/13 05:03:19;;;;;;;17.08;13.63;;;11.80;99.90;;;;;;5055693;28;20449;-77
2022/04/13 05:05:45;;;;;;;18.17;14.52;;;11.90;99.90;;;;;;5090158;28;20429;-76
2022/04/13 05:08:11;;;;;;;17.00;14.07;;;11.80;99.90;;;;;;5089631;28;20498;-76
2022/04/13 05:10:37;;;;;;;18.23;14.93;;;11.80;99.90;;;;;;5090019;28;20394;-77
2022/04/13 05:13:03;;;;;;;15.50;13.70;;;11.80;99.90;;;;;;5089277;28;20422;-76
2022/04/13 05:15:29;;;;;;;18.98;14.48;;;11.80;99.90;;;;;;5090132;28;20409;-76
2022/04/13 05:17:55;;;;;;;18.85;14.68;;;11.80;99.90;;;;;;5089863;28;20402;-77
2022/04/13 05:20:21;;;;;;;19.73;14.73;;;11.80;99.90;;;;;;5089845;28;20763;-76
2022/04/13 05:22:46;;;;;;;17.85;14.50;;;11.80;99.90;;;;;;5072086;28;20406;-77
2022/04/13 05:25:16;;;;;;;20.83;15.17;;;11.80;99.90;;;;;;5089260;28;21222;-77
2022/04/13 05:27:44;;;;;;;19.73;14.38;;;11.80;99.90;;;;;;5089675;28;20402;-77
2022/04/13 05:30:13;;;;;;;19.23;14.95;;;11.80;99.90;;;;;;5089276;28;20402;-77
2022/04/13 05:32:45;;;;;;;19.55;15.00;;;11.80;99.90;;;;;;5054564;28;20437;-77
2022/04/13 05:35:11;;;;;;;18.60;15.00;;;11.90;99.90;;;;;;5089676;28;21124;-76
2022/04/13 05:37:36;;;;;;;19.65;15.07;;;12.00;99.90;;;;;;5089450;28;20409;-77
2022/04/13 05:40:02;;;;;;;20.40;15.27;;;12.00;99.90;;;;;;5088877;28;20771;-77
2022/04/13 05:42:31;;;;;;;18.58;14.82;;;12.00;99.90;;;;;;5089286;28;20390;-76
2022/04/13 05:44:57;;;;;;;20.30;15.52;;;12.10;99.90;;;;;;5089078;28;20424;-76
2022/04/13 05:47:23;;;;;;;19.20;15.27;;;12.10;99.90;;;;;;5089269;28;20489;-76
2022/04/13 05:49:49;;;;;;;20.17;14.88;;;12.10;99.90;;;;;;5102545;27;20500;-76
2022/04/13 05:52:15;;;;;;;19.75;15.52;;;12.10;99.90;;;;;;5073059;28;20929;-76
2022/04/13 05:54:41;;;;;;;19.67;15.37;;;12.20;99.90;;;;;;5105779;27;20497;-76
2022/04/13 05:57:08;;;;;;;18.67;15.13;;;12.20;99.90;;;;;;5109028;28;20388;-76
2022/04/13 05:59:34;;;;;;;19.58;15.00;;;12.20;99.90;;;;;;5109280;28;20469;-76
2022/04/13 06:02:01;;;;;;;22.25;15.27;;;12.30;99.90;;;;;;5108690;28;20430;-76
2022/04/13 06:04:26;;;;;;;20.17;15.40;;;12.30;99.90;;;;;;5108927;28;20475;-76
2022/04/13 06:06:54;;;;;;;21.43;16.07;;;12.30;99.90;;;;;;5109091;28;20542;-76
2022/04/13 06:09:22;;;;;;;22.05;15.25;;;12.40;99.90;;;;;;5090197;28;20864;-75
2022/04/13 06:11:51;;;;;;;23.03;15.40;;;12.40;99.90;;;;;;5086064;28;20491;-76
2022/04/13 06:14:17;;;;;;;21.83;15.47;;;12.40;99.90;;;;;;5088361;28;20978;-75
2022/04/13 06:16:42;;;;;;;20.33;15.13;;;12.50;99.90;;;;;;5088490;28;20402;-75
2022/04/13 06:19:08;;;;;;;20.15;15.57;;;12.50;99.90;;;;;;5088103;28;20401;-75
2022/04/13 06:21:34;;;;;;;18.50;14.60;;;12.50;99.90;;;;;;5088061;28;20402;-76
2022/04/13 06:24:00;;;;;;;21.08;15.00;;;12.60;99.90;;;;;;5088391;28;20434;-76
2022/04/13 06:26:25;;;;;;;18.73;15.23;;;12.60;99.90;;;;;;5088316;28;20773;-77
2022/04/13 06:28:52;;;;;;;17.37;14.93;;;12.60;99.90;;;;;;5087548;28;20937;-76
2022/04/13 06:31:18;;;;;;;20.27;15.55;;;12.70;99.90;;;;;;5086710;28;20412;-76
2022/04/13 06:33:44;;;;;;;23.05;15.48;;;12.70;99.90;;;;;;5087062;28;20765;-76
2022/04/13 06:36:10;;;;;;;18.83;14.88;;;12.70;99.90;;;;;;5087798;28;20405;-76
2022/04/13 06:38:40;;;;;;;20.50;15.30;;;12.70;99.90;;;;;;5087590;28;20467;-76
2022/04/13 06:41:06;;;;;;;19.83;15.20;;;12.70;99.90;;;;;;5086691;28;20497;-76
2022/04/13 06:43:32;;;;;;;18.52;14.77;;;12.80;99.90;;;;;;5087677;28;20402;-77
2022/04/13 06:45:57;;;;;;;18.83;14.80;;;12.80;99.90;;;;;;5086596;28;20772;-76
2022/04/13 06:48:23;;;;;;;18.55;14.75;;;12.90;99.90;;;;;;5087423;28;20401;-76
2022/04/13 06:50:49;;;;;;;20.70;15.23;;;13.00;99.90;;;;;;5088076;28;20447;-76
2022/04/13 06:53:15;;;;;;;20.83;15.00;;;13.10;99.90;;;;;;5086494;28;21081;-76
2022/04/13 06:55:41;;;;;;;22.02;15.25;;;13.20;99.90;;;;;;5087897;28;20730;-76
2022/04/13 06:58:07;;;;;;;20.90;14.85;;;13.30;99.90;;;;;;5087191;28;20484;-77
2022/04/13 07:00:33;;;;;;;21.33;15.48;;;13.40;99.90;;;;;;5086702;28;20987;-77
2022/04/13 07:02:59;;;;;;;20.48;15.57;;;13.50;99.90;;;;;;5087637;28;20402;-77
2022/04/13 07:05:25;;;;;;;22.27;15.63;;;13.60;99.90;;;;;;5087453;28;20408;-76
2022/04/13 07:07:51;;;;;;;21.57;15.43;;;13.70;99.90;;;;;;5070422;28;20468;-76
2022/04/13 07:10:16;;;;;;;22.50;15.43;;;13.70;99.90;;;;;;5067697;28;20404;-76
2022/04/13 07:12:42;;;;;;;22.10;16.70;;;13.70;99.90;;;;;;5079047;28;20425;-76
2022/04/13 07:15:08;;;;;;;23.10;16.40;;;13.80;99.90;;;;;;5087479;28;20494;-76
2022/04/13 07:17:35;;;;;;;21.20;16.90;;;13.80;99.90;;;;;;5087578;28;20412;-76
2022/04/13 07:20:01;;;;;;;20.63;16.50;;;13.90;99.90;;;;;;5087703;28;20394;-76
2022/04/13 07:22:26;;;;;;;22.13;16.35;;;13.90;99.90;;;;;;5087115;28;20407;-75
2022/04/13 07:24:52;;;;;;;21.35;16.92;;;13.90;99.90;;;;;;5087621;28;20948;-75
2022/04/13 07:27:18;;;;;;;23.77;17.03;;;13.90;99.90;;;;;;5069517;28;20406;-75
2022/04/13 07:29:43;;;;;;;21.23;16.83;;;14.00;99.90;;;;;;5087349;28;20437;-75
2022/04/13 07:32:09;;;;;;;25.77;17.13;;;14.10;99.90;;;;;;5086618;28;20402;-76
2022/04/13 07:34:36;;;;;;;22.02;16.33;;;14.20;99.90;;;;;;5087966;28;20408;-75
2022/04/13 07:37:03;;;;;;;22.10;16.40;;;14.20;99.90;;;;;;5087284;28;20423;-76
2022/04/13 07:39:28;;;;;;;23.10;16.50;;;14.30;99.90;;;;;;5069166;28;20399;-78
2022/04/13 07:41:54;;;;;;;20.20;15.35;;;14.30;99.90;;;;;;5087298;28;20655;-75
2022/04/13 07:44:20;;;;;;;21.23;15.23;;;14.40;99.90;;;;;;5069111;28;20406;-76
2022/04/13 07:46:45;;;;;;;22.63;15.70;;;14.50;99.90;;;;;;5069426;28;20453;-75
2022/04/13 07:49:11;;;;;;;22.73;15.77;;;14.50;99.90;;;;;;5086924;28;20451;-76
2022/04/13 07:51:39;;;;;;;19.90;13.80;;;14.60;99.90;;;;;;5087582;28;20394;-76
2022/04/13 07:54:05;;;;;;;20.25;14.23;;;14.70;99.90;;;;;;5087107;28;20511;-75
2022/04/13 07:56:31;;;;;;;19.00;13.35;;;14.80;99.90;;;;;;5090850;28;20963;-75
2022/04/13 07:58:56;;;;;;;17.77;12.17;;;14.90;99.90;;;;;;5055794;28;20402;-75
2022/04/13 08:01:22;;;;;;;16.73;10.40;;;15.00;99.90;;;;;;5090920;28;20473;-75
2022/04/13 08:03:47;;;;;;;15.20;10.47;;;15.20;99.90;;;;;;5091183;28;20482;-77
2022/04/13 08:06:13;;;;;;;13.80;10.10;;;15.30;99.90;;;;;;5094459;28;20403;-75
2022/04/13 08:08:39;;;;;;;18.30;11.68;;;15.40;99.90;;;;;;5111392;28;20408;-75
2022/04/13 08:11:06;;;;;;;19.52;12.48;;;15.40;99.90;;;;;;5110640;28;20770;-75
2022/04/13 08:13:32;;;;;;;19.33;11.63;;;15.50;99.90;;;;;;5110781;28;20436;-75
2022/04/13 08:15:58;;;;;;;18.38;12.40;;;15.50;99.90;;;;;;5092845;28;20887;-75
2022/04/13 08:18:23;;;;;;;15.87;12.47;;;15.40;99.90;;;;;;5092326;28;20495;-75
2022/04/13 08:20:49;;;;;;;18.33;13.70;;;15.40;99.90;;;;;;5111408;28;20396;-75
2022/04/13 08:23:16;;;;;;;17.07;13.23;;;15.30;99.90;;;;;;5110758;28;20400;-75
2022/04/13 08:25:41;;;;;;;22.53;13.63;;;15.30;99.90;;;;;;5110980;28;20399;-75
2022/04/13 08:28:07;;;;;;;21.27;14.40;;;15.20;99.90;;;;;;5110147;28;20393;-75
2022/04/13 08:30:33;;;;;;;19.40;15.10;;;15.10;99.90;;;;;;5111119;28;21011;-75
2022/04/13 08:32:58;;;;;;;19.53;15.03;;;15.10;99.90;;;;;;5110743;28;20459;-75
2022/04/13 08:35:25;;;;;;;20.60;15.02;;;15.10;99.90;;;;;;5110629;28;20396;-75
2022/04/13 08:37:50;;;;;;;21.58;14.85;;;15.10;99.90;;;;;;5110788;28;20853;-75
2022/04/13 08:40:17;;;;;;;20.73;15.00;;;15.10;99.90;;;;;;5110724;28;20475;-75
2022/04/13 08:42:49;;;;;;;19.30;14.77;;;15.20;99.90;;;;;;5110772;28;20566;-76
2022/04/13 08:45:30;;;;;;;21.45;15.20;;;15.20;99.90;;;;;;5110480;28;20491;-75
2022/04/13 08:47:59;;;;;;;19.48;14.05;;;15.30;99.90;;;;;;5110599;28;20465;-77
2022/04/13 08:50:29;;;;;;;20.80;14.25;;;15.40;99.90;;;;;;5110040;28;20476;-75
2022/04/13 08:52:59;;;;;;;19.20;14.25;;;15.60;99.90;;;;;;5110334;28;20481;-76
2022/04/13 08:55:26;;;;;;;19.33;14.57;;;15.60;99.90;;;;;;5110517;28;20962;-77
2022/04/13 08:58:17;;;;;;;18.90;13.88;;;15.80;99.90;;;;;;5110431;28;20397;-77
2022/04/13 09:00:49;;;;;;;20.80;14.68;;;15.80;99.90;;;;;;5110465;28;20476;-74
2022/04/13 09:03:33;;;;;;;22.02;14.25;;;15.90;99.90;;;;;;5092096;28;20404;-74
2022/04/13 09:05:59;;;;;;;19.27;14.23;;;16.00;99.90;;;;;;5108415;28;20901;-75
2022/04/13 09:08:54;;;;;;;18.83;14.48;;;16.20;99.90;;;;;;5072350;28;20427;-75
2022/04/13 09:11:22;;;;;;;17.95;13.85;;;16.20;99.90;;;;;;5089098;28;20402;-75
2022/04/13 09:13:49;;;;;;;18.10;14.23;;;16.30;99.90;;;;;;5089604;28;21037;-75
2022/04/13 09:16:15;;;;;;;21.13;14.30;;;16.40;99.90;;;;;;5090013;28;20398;-75
2022/04/13 09:18:45;;;;;;;17.65;13.52;;;16.50;99.90;;;;;;5089968;28;20401;-75
2022/04/13 09:21:18;;;;;;;18.83;13.65;;;16.70;99.90;;;;;;5089489;28;20408;-75
2022/04/13 09:23:45;;;;;;;19.83;14.27;;;16.90;99.90;;;;;;5089760;28;20404;-75
2022/04/13 09:26:10;;;;;;;15.93;12.32;;;17.10;99.90;;;;;;5090150;28;20426;-76
2022/04/13 09:28:39;;;;;;;18.87;13.17;;;17.40;99.90;;;;;;5089910;28;20440;-75
2022/04/13 09:31:05;;;;;;;19.23;12.90;;;17.50;99.90;;;;;;5089360;28;20430;-76
2022/04/13 09:33:31;;;;;;;16.73;13.67;;;17.50;99.90;;;;;;5089548;28;20468;-75
2022/04/13 09:35:57;;;;;;;18.27;13.30;;;17.40;99.90;;;;;;5089746;28;20414;-76
2022/04/13 09:38:24;;;;;;;16.98;12.38;;;17.40;99.90;;;;;;5071273;28;20822;-76
2022/04/13 09:40:54;;;;;;;17.85;13.70;;;17.70;99.90;;;;;;5089444;28;20435;-76
2022/04/13 09:43:22;;;;;;;19.27;13.55;;;18.00;99.90;;;;;;5089543;28;20397;-76
2022/04/13 09:45:52;;;;;;;16.30;12.05;;;18.40;99.90;;;;;;5089627;28;20406;-76
2022/04/13 09:48:23;;;;;;;13.95;10.80;;;18.70;99.90;;;;;;5089098;28;20463;-76
2022/04/13 09:50:51;;;;;;;14.63;10.38;;;19.10;99.90;;;;;;5089513;28;20394;-76
2022/04/13 09:53:20;;;;;;;15.77;10.93;;;19.50;99.90;;;;;;5089118;28;20904;-76
2022/04/13 09:55:53;;;;;;;14.93;10.85;;;19.70;99.90;;;;;;5088988;28;20398;-76
2022/04/13 09:58:22;;;;;;;14.80;11.30;;;20.10;99.90;;;;;;5088574;28;20475;-76
2022/04/13 10:00:54;;;;;;;14.70;10.50;;;20.30;99.90;;;;;;5088877;28;20397;-77
2022/04/13 10:03:22;;;;;;;15.23;11.07;;;20.50;99.90;;;;;;5089050;28;20513;-77
2022/04/13 10:05:57;;;;;;;13.52;10.10;;;20.80;99.90;;;;;;5088907;28;20773;-76
2022/04/13 10:08:24;;;;;;;12.10;8.68;;;21.20;99.90;;;;;;5089007;28;20869;-76
2022/04/13 10:10:59;;;;;;;13.73;9.00;;;21.30;99.30;;;;;;5088540;28;21310;-76
2022/04/13 10:13:31;;;;;;;13.48;8.50;;;21.30;99.70;;;;;;5088476;28;20483;-76
2022/04/13 10:15:58;;;;;;;11.75;7.80;;;21.30;98.90;;;;;;5088653;28;20402;-76
2022/04/13 10:18:24;;;;;;;9.77;6.88;;;21.50;99.20;;;;;;5087911;28;20401;-76
2022/04/13 10:20:50;;;;;;;10.90;7.90;;;21.50;96.80;;;;;;5088912;28;20402;-76
2022/04/13 10:23:16;;;;;;;10.63;6.93;;;21.60;97.50;;;;;;5088607;28;20827;-76
2022/04/13 10:25:43;;;;;;;11.30;7.60;;;21.80;96.80;;;;;;5088778;28;20467;-76
2022/04/13 10:28:12;;;;;;;9.27;7.20;;;21.90;97.10;;;;;;5088548;28;20465;-76
2022/04/13 10:30:41;;;;;;;12.30;7.97;;;22.10;95.90;;;;;;5088512;28;20916;-76
2022/04/13 10:33:09;;;;;;;11.93;8.10;;;22.30;96.20;;;;;;5088182;28;20509;-76
2022/04/13 10:35:37;;;;;;;10.25;6.97;;;22.40;95.60;;;;;;5087838;28;20408;-76
2022/04/13 10:38:03;;;;;;;9.93;6.28;;;22.30;93.70;;;;;;5088385;28;20896;-76
2022/04/13 10:40:37;;;;;;;9.43;6.15;;;22.40;94.40;;;;;;5088629;28;20428;-76
2022/04/13 10:43:04;;;;;;;10.13;6.47;;;22.40;93.30;;;;;;5087907;28;20920;-76
2022/04/13 10:45:31;;;;;;;10.05;6.40;;;22.10;93.30;;;;;;5088270;28;20892;-76
2022/04/13 10:48:08;;;;;;;10.52;6.25;;;21.90;95.10;;;;;;5069961;28;20911;-76
2022/04/13 10:50:45;;;;;;;9.65;6.00;;;21.70;94.30;;;;;;5088118;28;20409;-75
2022/04/13 10:53:24;;;;;;;11.63;6.55;;;21.30;94.30;;;;;;5087565;28;20900;-76
2022/04/13 10:55:58;;;;;;;10.03;6.23;;;21.20;96.30;;;;;;5069825;28;20424;-76
2022/04/13 10:59:06;;;;;;;9.23;6.20;;;21.40;97.30;;;;;;5088133;28;20414;-76
2022/04/13 11:02:04;;;;;;;9.23;6.03;;;21.80;95.30;;;;;;5088128;28;20410;-76
2022/04/13 11:04:32;;;;;;;9.82;5.85;;;22.10;94.10;;;;;;5087801;28;20405;-76
2022/04/13 11:06:59;;;;;;;9.23;5.70;;;22.40;93.90;;;;;;5069314;28;21251;-76
2022/04/13 11:09:36;;;;;;;9.70;5.63;;;22.70;93.50;;;;;;5088068;28;20446;-76
2022/04/13 11:12:03;;;;;;;8.38;5.07;;;23.10;93.20;;;;;;5087253;28;20800;-76
2022/04/13 11:14:29;;;;;;;9.10;5.50;;;23.20;91.70;;;;;;5069673;28;20413;-76
2022/04/13 11:17:06;;;;;;;8.52;5.78;;;23.40;90.80;;;;;;5069915;28;20409;-76
2022/04/13 11:19:33;;;;;;;7.97;5.60;;;23.20;90.00;;;;;;5070149;28;20424;-76
2022/04/13 11:21:58;;;;;;;7.65;5.03;;;22.70;90.10;;;;;;5052837;28;20734;-75
2022/04/13 11:24:58;;;;;;;8.52;5.22;;;22.20;90.80;;;;;;5052543;28;20425;-75
2022/04/13 11:27:25;;;;;;;8.90;5.90;;;21.80;92.10;;;;;;5069929;28;20414;-75
2022/04/13 11:30:02;;;;;;;10.37;6.10;;;21.70;92.10;;;;;;5072499;28;20406;-75
2022/04/13 11:32:36;;;;;;;9.02;5.88;;;21.40;92.70;;;;;;5092020;28;20465;-76
2022/04/13 11:35:03;;;;;;;10.15;5.90;;;21.50;93.20;;;;;;5073029;28;20907;-75
2022/04/13 11:37:35;;;;;;;8.48;5.43;;;21.90;93.80;;;;;;5091691;28;20455;-75
2022/04/13 11:40:06;;;;;;;8.15;5.25;;;22.60;93.50;;;;;;5073616;28;21224;-75
2022/04/13 11:42:35;;;;;;;8.70;4.75;;;22.90;91.80;;;;;;5056769;28;20487;-75
2022/04/13 11:45:14;;;;;;;7.15;4.10;;;22.80;92.30;;;;;;5091151;28;20776;-75
2022/04/13 11:47:41;;;;;;;9.80;4.63;;;22.60;89.50;;;;;;5073339;28;20410;-75
2022/04/13 11:50:13;;;;;;;7.97;4.35;;;22.50;89.70;;;;;;5072632;28;21233;-75
2022/04/13 11:52:49;;;;;;;7.72;4.50;;;22.10;90.10;;;;;;5072701;28;20432;-76
2022/04/13 11:55:25;;;;;;;6.22;3.63;;;21.80;90.90;;;;;;5091310;28;20492;-75
2022/04/13 11:58:09;;;;;;;8.38;4.25;;;21.50;91.40;;;;;;5091066;28;20421;-75
2022/04/13 12:00:54;;;;;;;7.15;4.00;;;21.20;91.40;;;;;;5091344;28;20440;-76
2022/04/13 12:03:30;;;;;;;7.45;4.38;;;21.10;92.10;;;;;;5056609;28;20414;-76
2022/04/13 12:06:04;;;;;;;15.93;5.78;;;21.00;91.70;;;;;;5072927;28;20990;-75
2022/04/13 12:08:41;;;;;;;9.50;4.18;;;20.80;91.70;;;;;;5091056;28;20484;-76
2022/04/13 12:11:10;;;;;;;8.27;3.92;;;20.60;91.90;;;;;;5090540;28;20497;-75
2022/04/13 12:13:54;;;;;;;6.18;3.45;;;20.40;91.90;;;;;;5090789;28;20778;-76
2022/04/13 12:16:27;;;;;;;11.02;5.65;;;20.20;92.50;;;;;;5090520;28;20410;-76
2022/04/13 12:18:55;;;;;;;8.45;4.85;;;20.00;93.70;;;;;;5091006;28;20455;-76
2022/04/13 12:21:23;;;;;;;7.75;4.53;;;19.80;93.80;;;;;;5090122;28;20402;-76
2022/04/13 12:23:49;;;;;;;8.50;4.78;;;19.60;95.00;;;;;;5072189;28;20419;-76
2022/04/13 12:26:15;;;;;;;11.27;4.90;;;19.40;95.40;;;;;;5091012;28;20834;-75
2022/04/13 12:28:41;;;;;;;8.88;5.10;;;19.30;96.30;;;;;;5090722;28;20401;-76
2022/04/13 12:31:09;;;;;;;9.43;5.22;;;19.20;96.30;;;;;;5090621;28;20939;-76
2022/04/13 12:33:36;;;;;;;11.93;5.65;;;19.20;97.00;;;;;;5090585;28;20505;-76